createdAt,value
2023-06-08T00:03:23.187Z,99.90
2023-06-08T00:07:25.986Z,99.90
2023-06-08T00:11:28.427Z,99.90
2023-06-08T00:15:31.119Z,99.90
2023-06-08T00:19:37.075Z,99.90
2023-06-08T00:23:38.908Z,99.90
2023-06-08T00:27:40.933Z,99.90
2023-06-08T00:31:42.734Z,99.90
2023-06-08T00:35:44.398Z,99.90
2023-06-08T00:39:46.230Z,99.90
2023-06-08T00:43:48.762Z,99.90
2023-06-08T00:47:51.168Z,99.90
2023-06-08T00:51:53.126Z,99.90
2023-06-08T00:55:56.296Z,99.90
2023-06-08T01:00:02.514Z,99.90
2023-06-08T01:04:07.387Z,99.90
2023-06-08T01:08:13.916Z,99.90
2023-06-08T01:12:16.222Z,99.90
2023-06-08T01:16:19.666Z,99.90
2023-06-08T01:20:37.886Z,99.90
2023-06-08T01:24:41.156Z,99.90
2023-06-08T01:28:47.910Z,99.90
2023-06-08T01:32:49.707Z,99.90
2023-06-08T01:37:10.433Z,99.90
2023-06-08T01:41:24.350Z,99.90
2023-06-08T01:45:28.987Z,99.90
2023-06-08T01:49:33.400Z,99.90
2023-06-08T01:53:35.704Z,99.90
2023-06-08T01:57:37.517Z,99.90
2023-06-08T02:01:39.215Z,99.90
2023-06-08T02:05:41.230Z,99.90
2023-06-08T02:09:42.869Z,99.90
2023-06-08T02:13:45.713Z,99.90
2023-06-08T02:17:47.601Z,99.90
2023-06-08T02:21:50.530Z,99.90
2023-06-08T02:25:52.284Z,99.90
2023-06-08T02:29:54.709Z,99.90
2023-06-08T02:33:56.416Z,99.90
2023-06-08T02:37:58.184Z,99.90
2023-06-08T02:41:59.919Z,99.90
2023-06-08T02:46:01.880Z,99.90
2023-06-08T02:50:04.184Z,99.90
2023-06-08T02:54:06.272Z,99.90
2023-06-08T02:58:10.491Z,99.90
2023-06-08T03:02:12.578Z,99.90
2023-06-08T03:06:18.974Z,99.90
2023-06-08T03:10:20.664Z,99.90
2023-06-08T03:14:29.442Z,99.90
2023-06-08T03:18:31.100Z,99.90
2023-06-08T03:22:35.743Z,99.90
2023-06-08T03:26:38.062Z,99.90
2023-06-08T03:30:39.786Z,99.90
2023-06-08T03:34:41.824Z,99.90
2023-06-08T03:38:43.607Z,99.90
2023-06-08T03:42:45.347Z,99.90
2023-06-08T03:46:48.143Z,99.90
2023-06-08T03:50:53.031Z,99.90
2023-06-08T03:54:55.875Z,99.90
2023-06-08T03:58:57.998Z,99.90
2023-06-08T04:02:59.888Z,99.90
2023-06-08T04:07:02.275Z,99.90
2023-06-08T04:11:04.000Z,99.90
2023-06-08T04:15:06.525Z,99.90
2023-06-08T04:19:10.908Z,99.90
2023-06-08T04:23:12.690Z,99.90
2023-06-08T04:27:14.480Z,99.90
2023-06-08T04:31:16.933Z,99.90
2023-06-08T04:35:18.879Z,99.90
2023-06-08T04:39:20.896Z,99.90
2023-06-08T04:43:23.469Z,99.90
2023-06-08T04:47:25.150Z,99.90
2023-06-08T04:51:30.810Z,99.90
2023-06-08T04:55:32.596Z,99.90
2023-06-08T04:59:34.286Z,99.90
2023-06-08T05:03:36.203Z,99.90
2023-06-08T05:07:37.938Z,99.90
2023-06-08T05:11:41.001Z,99.90
2023-06-08T05:15:42.924Z,99.90
2023-06-08T05:19:44.600Z,99.90
2023-06-08T05:23:46.417Z,99.90
2023-06-08T05:27:48.342Z,99.90
2023-06-08T05:31:50.625Z,99.90
2023-06-08T05:35:52.288Z,99.90
2023-06-08T05:39:54.000Z,99.90
2023-06-08T05:43:55.700Z,99.90
2023-06-08T05:47:57.539Z,99.90
2023-06-08T05:51:59.331Z,99.90
2023-06-08T05:56:01.275Z,99.90
2023-06-08T06:04:18.654Z,99.90
2023-06-08T06:08:20.661Z,99.90
2023-06-08T06:12:22.514Z,99.90
2023-06-08T06:16:24.525Z,99.90
2023-06-08T06:20:28.397Z,99.90
2023-06-08T06:24:30.184Z,99.90
2023-06-08T06:28:31.925Z,99.90
2023-06-08T06:32:33.786Z,99.90
2023-06-08T06:36:35.830Z,99.90
2023-06-08T06:40:37.605Z,99.90
2023-06-08T06:44:39.295Z,99.90
2023-06-08T06:48:40.979Z,99.90
2023-06-08T06:52:42.705Z,99.90
2023-06-08T06:56:44.428Z,99.90
2023-06-08T07:00:46.431Z,99.90
2023-06-08T07:04:48.113Z,99.90
2023-06-08T07:08:50.426Z,99.90
2023-06-08T07:12:52.173Z,99.90
2023-06-08T07:16:53.885Z,99.90
2023-06-08T07:20:55.639Z,99.90
2023-06-08T07:25:01.086Z,99.90
2023-06-08T07:29:19.647Z,99.90
2023-06-08T07:33:21.461Z,99.90
2023-06-08T07:37:23.236Z,99.90
2023-06-08T07:41:28.132Z,99.90
2023-06-08T07:45:29.908Z,99.90
2023-06-08T07:49:31.779Z,99.90
2023-06-08T07:53:37.427Z,99.90
2023-06-08T07:57:39.154Z,99.90
2023-06-08T08:01:42.021Z,99.90
2023-06-08T08:05:43.703Z,99.90
2023-06-08T08:09:45.424Z,99.90
2023-06-08T08:13:47.561Z,99.90
2023-06-08T08:17:49.885Z,99.90
2023-06-08T08:21:51.629Z,99.90
2023-06-08T08:25:53.867Z,99.90
2023-06-08T08:29:55.738Z,99.90
2023-06-08T08:33:57.502Z,99.90
2023-06-08T08:37:59.260Z,99.90
2023-06-08T08:42:07.233Z,99.90
2023-06-08T08:46:09.993Z,99.90
2023-06-08T08:50:17.909Z,99.90
2023-06-08T08:54:32.254Z,99.90
2023-06-08T08:58:35.133Z,99.90
2023-06-08T09:02:37.794Z,99.90
2023-06-08T09:06:39.589Z,99.90
2023-06-08T09:10:41.237Z,99.90
2023-06-08T09:14:58.763Z,99.90
2023-06-08T09:19:07.651Z,99.90
2023-06-08T09:23:21.175Z,99.90
2023-06-08T09:27:28.558Z,99.90
2023-06-08T09:31:30.965Z,99.90
2023-06-08T09:35:32.702Z,99.90
2023-06-08T09:39:44.717Z,99.90
2023-06-08T09:43:48.526Z,99.90
2023-06-08T09:47:50.522Z,99.90
2023-06-08T09:51:57.761Z,99.90
2023-06-08T09:56:05.344Z,99.90
2023-06-08T10:00:14.851Z,99.90
2023-06-08T10:04:34.188Z,99.90
2023-06-08T10:08:38.957Z,99.90
2023-06-08T10:12:41.681Z,99.90
2023-06-08T10:16:44.045Z,99.90
2023-06-08T10:20:46.407Z,99.90
2023-06-08T10:25:07.477Z,99.90
2023-06-08T10:29:22.183Z,99.90
2023-06-08T10:33:26.401Z,99.90
2023-06-08T10:37:29.218Z,99.90
2023-06-08T10:41:54.597Z,99.90
2023-06-08T10:45:56.436Z,99.90
2023-06-08T10:50:07.490Z,99.90
2023-06-08T10:54:10.374Z,99.90
2023-06-08T10:58:22.572Z,99.90
2023-06-08T11:02:24.596Z,99.90
2023-06-08T11:06:30.280Z,99.90
2023-06-08T11:10:33.153Z,99.90
2023-06-08T11:14:34.942Z,99.90
2023-06-08T11:18:36.702Z,99.90
2023-06-08T11:22:41.674Z,99.90
2023-06-08T11:26:55.750Z,99.90
2023-06-08T11:31:10.978Z,99.90
2023-06-08T11:35:12.984Z,99.90
2023-06-08T11:39:15.332Z,99.90
2023-06-08T11:43:17.049Z,99.90
2023-06-08T11:47:19.931Z,99.90
2023-06-08T11:51:26.193Z,99.90
2023-06-08T11:55:29.412Z,99.90
2023-06-08T11:59:36.076Z,99.90
2023-06-08T12:03:49.035Z,99.90
2023-06-08T12:07:58.193Z,99.90
2023-06-08T12:12:10.165Z,99.90
2023-06-08T12:16:12.714Z,99.90
2023-06-08T12:20:18.218Z,99.90
2023-06-08T12:24:19.997Z,98.20
2023-06-08T12:28:25.048Z,99.00
2023-06-08T12:32:26.740Z,99.10
2023-06-08T12:36:28.706Z,98.10
2023-06-08T12:40:33.651Z,99.90
2023-06-08T12:44:35.961Z,99.90
2023-06-08T12:48:37.641Z,99.90
2023-06-08T12:52:39.457Z,99.90
2023-06-08T12:56:41.122Z,99.90
2023-06-08T13:00:42.963Z,99.50
2023-06-08T13:04:44.755Z,98.90
2023-06-08T13:08:46.731Z,98.20
2023-06-08T13:12:49.417Z,99.70
2023-06-08T13:16:51.344Z,97.20
2023-06-08T13:20:55.173Z,99.80
2023-06-08T13:24:56.939Z,99.00
2023-06-08T13:28:58.729Z,97.30
2023-06-08T13:33:01.966Z,97.60
2023-06-08T13:37:04.253Z,98.40
2023-06-08T13:41:06.578Z,99.50
2023-06-08T13:45:12.558Z,98.90
2023-06-08T13:49:15.405Z,99.90
2023-06-08T13:53:17.107Z,99.90
2023-06-08T13:57:18.918Z,99.90
2023-06-08T14:01:20.626Z,99.90
2023-06-08T14:05:22.407Z,98.20
2023-06-08T14:09:24.147Z,98.90
2023-06-08T14:13:26.277Z,98.10
2023-06-08T14:17:28.239Z,98.70
2023-06-08T14:21:29.935Z,97.30
2023-06-08T14:25:33.495Z,96.90
2023-06-08T14:29:35.322Z,97.30
2023-06-08T14:33:37.052Z,95.60
2023-06-08T14:37:38.752Z,96.80
2023-06-08T14:41:41.417Z,96.40
2023-06-08T14:45:43.352Z,94.70
2023-06-08T14:49:45.149Z,95.30
2023-06-08T14:53:46.790Z,95.40
2023-06-08T14:57:48.610Z,95.70
2023-06-08T15:01:50.418Z,97.00
2023-06-08T15:05:52.158Z,95.90
2023-06-08T15:09:53.867Z,95.70
2023-06-08T15:13:55.613Z,95.70
2023-06-08T15:17:57.359Z,94.10
2023-06-08T15:21:59.048Z,95.20
2023-06-08T15:26:00.862Z,95.10
2023-06-08T15:30:02.766Z,95.10
2023-06-08T15:34:04.795Z,96.60
2023-06-08T15:38:06.498Z,96.80
2023-06-08T15:42:08.444Z,97.10
2023-06-08T15:46:10.707Z,97.70
2023-06-08T15:50:12.419Z,98.10
2023-06-08T15:54:14.232Z,98.90
2023-06-08T15:58:17.080Z,98.30
2023-06-08T16:02:18.737Z,99.60
2023-06-08T16:06:20.664Z,98.50
2023-06-08T16:10:22.512Z,98.50
2023-06-08T16:14:24.178Z,99.90
2023-06-08T16:18:26.211Z,99.90
2023-06-08T16:22:28.254Z,99.60
2023-06-08T16:26:30.589Z,97.30
2023-06-08T16:30:32.432Z,97.80
2023-06-08T16:34:34.186Z,97.70
2023-06-08T16:38:39.294Z,96.10
2023-06-08T16:42:41.055Z,95.40
2023-06-08T16:46:42.957Z,94.50
2023-06-08T16:50:44.721Z,94.70
2023-06-08T16:54:46.444Z,95.00
2023-06-08T16:58:48.174Z,94.60
2023-06-08T17:02:49.954Z,94.00
2023-06-08T17:06:51.656Z,93.70
2023-06-08T17:10:53.352Z,94.10
2023-06-08T17:14:55.058Z,93.70
2023-06-08T17:18:56.749Z,93.60
2023-06-08T17:22:58.476Z,94.10
2023-06-08T17:27:00.534Z,95.00
2023-06-08T17:31:03.652Z,95.60
2023-06-08T17:35:06.243Z,95.50
2023-06-08T17:39:08.603Z,96.30
2023-06-08T17:43:10.349Z,96.60
2023-06-08T17:47:12.018Z,96.70
2023-06-08T17:51:17.384Z,97.50
2023-06-08T17:55:19.106Z,97.90
2023-06-08T17:59:20.923Z,98.30
2023-06-08T18:03:22.777Z,98.90
2023-06-08T18:07:24.527Z,99.30
2023-06-08T18:11:27.481Z,99.30
2023-06-08T18:15:29.235Z,99.90
2023-06-08T18:19:30.935Z,99.90
2023-06-08T18:23:32.719Z,99.90
2023-06-08T18:27:36.424Z,99.90
2023-06-08T18:31:38.271Z,99.90
2023-06-08T18:35:40.046Z,99.90
2023-06-08T18:39:57.093Z,99.90
2023-06-08T18:44:00.894Z,99.90
2023-06-08T18:48:02.624Z,99.90
2023-06-08T18:52:04.585Z,99.90
2023-06-08T18:56:06.254Z,99.90
2023-06-08T19:00:08.834Z,99.90
2023-06-08T19:04:11.039Z,99.90
2023-06-08T19:08:12.853Z,99.90
2023-06-08T19:12:16.447Z,99.90
2023-06-08T19:16:18.224Z,99.90
2023-06-08T19:20:19.989Z,99.90
2023-06-08T19:24:21.981Z,99.90
2023-06-08T19:28:23.644Z,99.90
2023-06-08T19:32:25.289Z,99.90
2023-06-08T19:36:27.009Z,99.90
2023-06-08T19:40:28.731Z,99.90
2023-06-08T19:44:31.259Z,99.90
2023-06-08T19:48:33.639Z,99.90
2023-06-08T19:52:35.414Z,99.90
2023-06-08T19:56:37.230Z,99.90
2023-06-08T20:00:38.905Z,99.90
2023-06-08T20:04:40.550Z,99.90
2023-06-08T20:08:43.010Z,99.90
2023-06-08T20:12:44.720Z,99.90
2023-06-08T20:16:49.956Z,99.90
2023-06-08T20:20:53.406Z,99.90
2023-06-08T20:24:55.080Z,99.90
2023-06-08T20:28:57.030Z,99.90
2023-06-08T20:32:59.834Z,99.90
2023-06-08T20:37:01.587Z,99.90
2023-06-08T20:41:03.362Z,99.90
2023-06-08T20:45:05.652Z,99.90
2023-06-08T20:49:07.636Z,99.90
2023-06-08T20:53:09.320Z,99.90
2023-06-08T20:57:12.101Z,99.90
2023-06-08T21:01:13.968Z,99.90
2023-06-08T21:05:17.423Z,99.90
2023-06-08T21:09:21.020Z,99.90
2023-06-08T21:13:22.791Z,99.90
2023-06-08T21:17:24.468Z,99.90
2023-06-08T21:21:26.217Z,99.90
2023-06-08T21:25:27.919Z,99.90
2023-06-08T21:29:29.612Z,99.90
2023-06-08T21:33:31.327Z,99.90
2023-06-08T21:37:33.020Z,99.90
2023-06-08T21:41:34.703Z,99.90
2023-06-08T21:45:36.377Z,99.90
2023-06-08T21:49:38.072Z,99.90
2023-06-08T21:53:39.738Z,99.90
2023-06-08T21:57:41.465Z,99.90
2023-06-08T22:01:43.348Z,99.90
2023-06-08T22:05:45.172Z,99.90
2023-06-08T22:09:46.930Z,99.90
2023-06-08T22:13:53.159Z,99.90
2023-06-08T22:17:55.666Z,99.90
2023-06-08T22:21:57.736Z,99.90
2023-06-08T22:25:59.398Z,99.90
2023-06-08T22:30:01.149Z,99.90
2023-06-08T22:34:03.054Z,99.90
2023-06-08T22:38:04.809Z,99.90
2023-06-08T22:42:06.814Z,99.90
2023-06-08T22:46:08.716Z,99.90
2023-06-08T22:50:11.046Z,99.90
2023-06-08T22:54:15.670Z,99.90
2023-06-08T22:58:18.296Z,99.90
2023-06-08T23:02:19.987Z,99.90
2023-06-08T23:06:23.742Z,99.90
2023-06-08T23:10:25.489Z,99.90
2023-06-08T23:14:27.162Z,99.90
2023-06-08T23:18:32.356Z,99.90
2023-06-08T23:22:34.377Z,99.90
2023-06-08T23:26:37.909Z,99.90
2023-06-08T23:30:39.564Z,99.90
2023-06-08T23:34:41.438Z,99.90
2023-06-08T23:38:43.170Z,99.90
2023-06-08T23:42:45.537Z,99.90
2023-06-08T23:46:52.452Z,99.90
2023-06-08T23:50:54.263Z,99.90
2023-06-08T23:54:56.374Z,99.90
2023-06-08T23:58:58.078Z,99.90
